Time;durP1;ratioP1;P1;durP2;ratioP2;P2;SDS_P1;SDS_P2;PMS_P1;PMS_P2;Temp;Humidity;BMP_temperature;BMP_pressure;BME280_temperature;BME280_humidity;BME280_pressure;Samples;Min_cycle;Max_cycle;Signal;HPM_P1;HPM_P2
2024/04/10 00:01:10;;;;;;;0.00;0.00;;;11.70;81.10;;;;;;5278460;26;20002;-69
2024/04/10 00:03:35;;;;;;;2.80;0.10;;;11.70;81.50;;;;;;5260241;26;20013;-68
2024/04/10 00:06:03;;;;;;;0.73;0.00;;;11.60;81.70;;;;;;5285820;26;20006;-70
2024/04/10 00:08:29;;;;;;;;;;;11.60;82.30;;;;;;5309391;26;20076;-70
2024/04/10 00:10:55;;;;;;;1.73;0.10;;;11.60;82.20;;;;;;5306068;26;20263;-68
2024/04/10 00:13:21;;;;;;;0.00;0.00;;;11.60;81.90;;;;;;5272244;26;20033;-68
2024/04/10 00:15:57;;;;;;;1.17;0.08;;;11.60;82.00;;;;;;5288674;26;20001;-68
2024/04/10 00:18:22;;;;;;;1.00;0.05;;;11.50;82.10;;;;;;5334826;26;20012;-69
2024/04/10 00:20:48;;;;;;;1.95;0.05;;;11.50;82.40;;;;;;5333721;26;20004;-69
2024/04/10 00:23:20;;;;;;;0.00;0.00;;;11.50;81.90;;;;;;5345489;26;20459;-69
2024/04/10 00:26:00;;;;;;;0.55;0.00;;;11.50;82.40;;;;;;5328604;26;20024;-69
2024/04/10 00:28:29;;;;;;;;;;;11.50;82.20;;;;;;5347039;26;20029;-67
2024/04/10 00:30:55;;;;;;;0.40;0.00;;;11.40;82.60;;;;;;5320421;26;20043;-70
2024/04/10 00:33:21;;;;;;;1.52;0.13;;;11.40;82.70;;;;;;5320286;26;20348;-69
2024/04/10 00:36:01;;;;;;;0.52;0.00;;;11.40;82.60;;;;;;5318428;26;19996;-69
2024/04/10 00:38:29;;;;;;;1.80;0.00;;;11.40;83.10;;;;;;5312428;26;20013;-70
2024/04/10 00:41:03;;;;;;;1.58;0.10;;;11.40;83.10;;;;;;5286466;26;20017;-70
2024/04/10 00:43:29;;;;;;;1.10;0.10;;;11.50;83.60;;;;;;5286118;26;20016;-70
2024/04/10 00:46:09;;;;;;;4.00;0.20;;;11.50;83.70;;;;;;5222674;26;20009;-69
2024/04/10 00:48:36;;;;;;;1.15;0.10;;;11.50;83.70;;;;;;5252095;26;20315;-69
2024/04/10 00:51:11;;;;;;;0.50;0.00;;;11.50;83.70;;;;;;5153606;27;20362;-69
2024/04/10 00:53:44;;;;;;;1.58;0.10;;;11.60;83.80;;;;;;5162203;27;20359;-69
2024/04/10 00:56:10;;;;;;;1.90;0.13;;;11.60;83.40;;;;;;5198764;27;30142;-67
2024/04/10 00:58:37;;;;;;;2.28;0.10;;;11.60;83.40;;;;;;5226128;27;20025;-69
2024/04/10 01:01:03;;;;;;;1.25;0.08;;;11.50;83.00;;;;;;5235327;27;20370;-70
2024/04/10 01:03:30;;;;;;;0.90;0.05;;;11.50;83.30;;;;;;5192091;27;20027;-68
2024/04/10 01:05:58;;;;;;;0.57;0.00;;;11.40;82.90;;;;;;5191056;27;20000;-69
2024/04/10 01:08:24;;;;;;;1.15;0.10;;;11.30;82.90;;;;;;5197796;27;20032;-69
2024/04/10 01:10:50;;;;;;;2.13;0.10;;;11.20;83.40;;;;;;5204248;27;20079;-70
2024/04/10 01:13:18;;;;;;;0.95;0.03;;;11.10;83.50;;;;;;5197447;27;20019;-70
2024/04/10 01:15:44;;;;;;;0.52;0.00;;;11.10;83.60;;;;;;5265429;26;20072;-68
2024/04/10 01:18:10;;;;;;;1.85;0.10;;;11.00;83.80;;;;;;5301157;26;22008;-70
2024/04/10 01:20:36;;;;;;;1.38;0.03;;;10.90;84.20;;;;;;5318014;26;20475;-68
2024/04/10 01:23:05;;;;;;;0.93;0.10;;;10.80;84.60;;;;;;5330522;26;19996;-70
2024/04/10 01:25:31;;;;;;;3.50;0.17;;;10.80;84.90;;;;;;5333612;26;20036;-70
2024/04/10 01:27:57;;;;;;;1.90;0.13;;;10.80;85.00;;;;;;5329838;26;20012;-68
2024/04/10 01:30:23;;;;;;;0.68;0.10;;;10.80;84.90;;;;;;5329674;26;20081;-70
2024/04/10 01:32:49;;;;;;;2.53;0.10;;;11.10;87.80;;;;;;5328729;26;20032;-69
2024/04/10 01:35:15;;;;;;;0.52;0.10;;;10.80;90.50;;;;;;5320571;26;20004;-70
2024/04/10 01:37:40;;;;;;;1.02;0.10;;;10.90;90.60;;;;;;5316448;26;20008;-69
2024/04/10 01:40:06;;;;;;;0.75;0.10;;;10.90;90.60;;;;;;5290582;26;20504;-69
2024/04/10 01:42:43;;;;;;;0.47;0.10;;;10.80;90.50;;;;;;5328306;26;20029;-70
2024/04/10 01:45:10;;;;;;;0.22;0.10;;;10.80;90.40;;;;;;5326825;26;20029;-70
2024/04/10 01:47:35;;;;;;;0.98;0.17;;;10.80;88.70;;;;;;5324632;26;20005;-70
2024/04/10 01:50:01;;;;;;;0.85;0.08;;;10.50;85.50;;;;;;5327063;26;20078;-70
2024/04/10 01:52:26;;;;;;;1.77;0.10;;;10.50;85.70;;;;;;5329560;26;20004;-69
2024/04/10 01:54:53;;;;;;;0.85;0.00;;;10.40;85.70;;;;;;5328984;26;20524;-69
2024/04/10 01:57:18;;;;;;;1.83;0.22;;;10.50;87.70;;;;;;5297178;26;20006;-68
2024/04/10 01:59:51;;;;;;;1.45;0.20;;;10.50;90.90;;;;;;5324071;26;20377;-69
2024/04/10 02:02:17;;;;;;;10.43;0.70;;;10.30;86.50;;;;;;5330567;26;20011;-68
2024/04/10 02:04:42;;;;;;;3.30;0.20;;;10.10;86.80;;;;;;5333136;26;20023;-70
2024/04/10 02:07:08;;;;;;;0.80;0.00;;;10.50;90.20;;;;;;5327951;26;20011;-69
2024/04/10 02:09:34;;;;;;;3.05;0.20;;;10.40;91.80;;;;;;5330820;26;20001;-70
2024/04/10 02:12:02;;;;;;;0.98;0.10;;;10.40;92.10;;;;;;5328711;26;20019;-70
2024/04/10 02:14:28;;;;;;;1.05;0.10;;;10.40;92.20;;;;;;5328528;26;19996;-69
2024/04/10 02:16:54;;;;;;;5.68;0.30;;;10.30;92.30;;;;;;5281984;26;20409;-70
2024/04/10 02:19:20;;;;;;;1.60;0.20;;;10.30;92.50;;;;;;5297634;26;19997;-67
2024/04/10 02:21:46;;;;;;;2.38;0.20;;;10.30;92.50;;;;;;5288765;26;19997;-68
2024/04/10 02:24:12;;;;;;;2.30;0.17;;;10.50;92.60;;;;;;5266311;26;20068;-69
2024/04/10 02:26:37;;;;;;;0.93;0.10;;;10.30;92.60;;;;;;5298229;26;20607;-70
2024/04/10 02:29:03;;;;;;;2.38;0.30;;;10.40;92.80;;;;;;5326353;26;20511;-69
2024/04/10 02:31:29;;;;;;;0.80;0.00;;;10.50;93.00;;;;;;5345985;26;20321;-70
2024/04/10 02:33:54;;;;;;;1.10;0.10;;;10.50;93.10;;;;;;5320291;26;20082;-69
2024/04/10 02:36:20;;;;;;;1.95;0.10;;;10.50;92.90;;;;;;5312925;26;20005;-68
2024/04/10 02:38:45;;;;;;;4.53;0.28;;;10.60;93.20;;;;;;5289664;26;20015;-68
2024/04/10 02:41:18;;;;;;;0.88;0.10;;;10.80;93.10;;;;;;5338204;26;20045;-70
2024/04/10 02:43:44;;;;;;;0.98;0.10;;;10.60;93.30;;;;;;5330690;26;20036;-67
2024/04/10 02:46:10;;;;;;;0.25;0.05;;;10.80;93.30;;;;;;5361562;26;20007;-69
2024/04/10 02:48:35;;;;;;;2.20;0.10;;;10.70;93.40;;;;;;5370188;26;20004;-68
2024/04/10 02:51:01;;;;;;;1.08;0.10;;;10.60;93.40;;;;;;5364851;26;20679;-68
2024/04/10 02:53:27;;;;;;;1.98;0.10;;;10.90;93.60;;;;;;5360259;26;20418;-68
2024/04/10 02:55:54;;;;;;;2.05;0.10;;;10.60;93.60;;;;;;5356374;26;20044;-68
2024/04/10 02:58:20;;;;;;;2.80;0.20;;;10.60;93.70;;;;;;5368073;26;20004;-69
2024/04/10 03:00:48;;;;;;;2.28;0.20;;;10.80;93.90;;;;;;5348939;26;20016;-69
2024/04/10 03:03:21;;;;;;;2.83;0.17;;;10.70;93.90;;;;;;5361587;26;20007;-68
2024/04/10 03:05:58;;;;;;;1.45;0.10;;;10.60;94.00;;;;;;5331348;26;19996;-69
2024/04/10 03:08:24;;;;;;;1.65;0.20;;;10.60;94.10;;;;;;5339840;26;20004;-69
2024/04/10 03:10:49;;;;;;;1.33;0.10;;;10.80;94.10;;;;;;5352261;26;20506;-69
2024/04/10 03:13:22;;;;;;;1.60;0.20;;;10.60;94.20;;;;;;5364357;26;19999;-69
2024/04/10 03:15:48;;;;;;;0.60;0.00;;;10.60;94.20;;;;;;5325222;26;20372;-69
2024/04/10 03:18:13;;;;;;;3.38;0.17;;;10.60;94.00;;;;;;5345528;26;20013;-69
2024/04/10 03:20:39;;;;;;;0.82;0.10;;;10.50;94.10;;;;;;5304958;26;20453;-69
2024/04/10 03:23:04;;;;;;;2.35;0.20;;;10.50;94.40;;;;;;5296333;26;20320;-69
2024/04/10 03:25:33;;;;;;;0.30;0.00;;;10.30;94.40;;;;;;5302238;26;20016;-70
2024/04/10 03:27:59;;;;;;;3.10;0.20;;;10.10;94.40;;;;;;5285317;26;20413;-69
2024/04/10 03:30:26;;;;;;;0.65;0.15;;;10.30;94.70;;;;;;5283353;26;20020;-67
2024/04/10 03:32:52;;;;;;;2.38;0.20;;;10.30;94.70;;;;;;5296950;26;20322;-70
2024/04/10 03:35:18;;;;;;;2.55;0.20;;;10.30;94.90;;;;;;5261393;26;21890;-69
2024/04/10 03:37:45;;;;;;;3.10;0.10;;;10.40;95.00;;;;;;5320962;26;20009;-68
2024/04/10 03:40:11;;;;;;;0.35;0.10;;;10.40;95.00;;;;;;5329160;26;19997;-70
2024/04/10 03:42:37;;;;;;;1.65;0.10;;;10.40;94.90;;;;;;5274545;26;20441;-69
2024/04/10 03:45:03;;;;;;;4.15;0.30;;;10.50;95.00;;;;;;5329987;26;20001;-69
2024/04/10 03:47:29;;;;;;;1.30;0.13;;;10.40;95.00;;;;;;5310355;26;20073;-68
2024/04/10 03:49:55;;;;;;;1.67;0.10;;;10.50;95.00;;;;;;5315908;26;20016;-69
2024/04/10 03:52:27;;;;;;;3.15;0.17;;;10.40;95.00;;;;;;5347488;26;20000;-68
2024/04/10 03:54:53;;;;;;;1.05;0.03;;;10.60;95.10;;;;;;5296897;26;20776;-69
2024/04/10 03:57:18;;;;;;;0.63;0.10;;;10.60;95.10;;;;;;5292214;26;20005;-69
2024/04/10 03:59:44;;;;;;;3.33;0.22;;;10.40;94.90;;;;;;5339512;26;20036;-68
2024/04/10 04:02:09;;;;;;;6.38;0.38;;;10.30;95.10;;;;;;5363394;26;20074;-69
2024/04/10 04:04:35;;;;;;;1.67;0.20;;;10.10;95.10;;;;;;5320800;26;20509;-69
2024/04/10 04:07:00;;;;;;;0.25;0.03;;;10.10;95.40;;;;;;5359432;26;20004;-68
2024/04/10 04:09:26;;;;;;;0.98;0.20;;;9.90;95.60;;;;;;5359659;26;20018;-68
2024/04/10 04:11:51;;;;;;;3.15;0.30;;;9.90;95.80;;;;;;5365686;26;19996;-68
2024/04/10 04:14:17;;;;;;;3.50;0.35;;;9.90;95.70;;;;;;5364606;26;20467;-69
2024/04/10 04:16:42;;;;;;;0.32;0.05;;;10.00;95.80;;;;;;5380583;26;20011;-69
2024/04/10 04:19:08;;;;;;;3.03;0.20;;;9.90;95.80;;;;;;5361538;26;20015;-68
2024/04/10 04:21:34;;;;;;;1.45;0.10;;;10.00;96.20;;;;;;5359142;26;20024;-67
2024/04/10 04:23:59;;;;;;;0.38;0.05;;;10.00;95.90;;;;;;5356968;26;20012;-68
2024/04/10 04:26:25;;;;;;;0.82;0.10;;;10.10;95.90;;;;;;5363444;26;20029;-69
2024/04/10 04:28:54;;;;;;;9.05;0.55;;;10.10;95.60;;;;;;5359833;26;20008;-67
2024/04/10 04:31:19;;;;;;;6.22;0.32;;;10.10;95.40;;;;;;5332956;26;20535;-68
2024/04/10 04:33:45;;;;;;;0.10;0.03;;;9.90;95.60;;;;;;5348380;26;20357;-69
2024/04/10 04:36:11;;;;;;;2.15;0.30;;;10.10;95.70;;;;;;5361512;26;20478;-68
2024/04/10 04:38:43;;;;;;;2.90;0.20;;;10.00;95.70;;;;;;5358747;26;20004;-68
2024/04/10 04:41:08;;;;;;;1.70;0.10;;;9.90;95.60;;;;;;5354105;26;20393;-69
2024/04/10 04:43:34;;;;;;;2.75;0.20;;;9.90;95.90;;;;;;5367336;26;20004;-67
2024/04/10 04:46:11;;;;;;;2.20;0.15;;;10.00;95.90;;;;;;5358852;26;20447;-68
2024/04/10 04:48:37;;;;;;;0.77;0.00;;;10.00;96.10;;;;;;5278628;26;20049;-70
2024/04/10 04:51:07;;;;;;;1.45;0.17;;;10.20;96.10;;;;;;5305177;26;20002;-70
2024/04/10 04:53:32;;;;;;;2.65;0.10;;;10.00;95.90;;;;;;5281770;26;19997;-70
2024/04/10 04:55:58;;;;;;;1.10;0.05;;;10.00;95.80;;;;;;5224202;26;20675;-70
2024/04/10 04:58:23;;;;;;;1.15;0.10;;;10.10;95.70;;;;;;5254394;27;20013;-69
2024/04/10 05:00:49;;;;;;;4.05;0.20;;;9.80;95.80;;;;;;5221162;27;20023;-70
2024/04/10 05:04:54;;;;;;;1.98;0.20;;;9.90;95.90;;;;;;5210759;27;20017;-70
2024/04/10 05:06:04;;;;;;;0.75;0.20;;;9.80;95.90;;;;;;5280846;26;20016;-71
2024/04/10 05:08:30;;;;;;;4.13;0.30;;;9.80;96.10;;;;;;5168825;27;20862;-68
2024/04/10 05:10:56;;;;;;;2.78;0.30;;;10.00;96.30;;;;;;5111269;27;20025;-70
2024/04/10 05:13:28;;;;;;;1.52;0.20;;;9.80;89.70;;;;;;5192240;27;20015;-69
2024/04/10 05:15:57;;;;;;;0.00;0.00;;;9.90;89.70;;;;;;5178185;27;20015;-69
2024/04/10 05:18:22;;;;;;;6.60;0.22;;;10.20;90.20;;;;;;5186253;27;20470;-70
2024/04/10 05:20:48;;;;;;;3.33;0.30;;;10.40;90.50;;;;;;5146682;27;20571;-70
2024/04/10 05:23:14;;;;;;;5.57;0.55;;;9.90;88.30;;;;;;5153179;27;20011;-69
2024/04/10 05:25:39;;;;;;;3.40;0.20;;;9.90;88.60;;;;;;5134426;27;20056;-69
2024/04/10 05:28:05;;;;;;;2.13;0.20;;;9.90;88.60;;;;;;5204527;27;20003;-69
2024/04/10 05:30:30;;;;;;;4.47;0.20;;;10.00;88.30;;;;;;5242900;27;20006;-69
2024/04/10 05:32:56;;;;;;;2.00;0.20;;;10.00;89.00;;;;;;5266695;27;20048;-69
2024/04/10 05:35:22;;;;;;;2.50;0.20;;;10.30;91.20;;;;;;5280267;26;20453;-67
2024/04/10 05:37:47;;;;;;;2.53;0.25;;;10.10;91.40;;;;;;5299590;26;20001;-70
2024/04/10 05:40:22;;;;;;;4.53;0.30;;;10.10;91.70;;;;;;5286905;26;20454;-69
2024/04/10 05:42:48;;;;;;;4.03;0.30;;;10.20;91.70;;;;;;5281761;27;20469;-70
2024/04/10 05:45:14;;;;;;;1.05;0.10;;;10.30;91.90;;;;;;5303350;27;20002;-70
2024/04/10 05:47:42;;;;;;;0.77;0.10;;;10.30;91.90;;;;;;5294855;26;20001;-70
2024/04/10 05:50:09;;;;;;;1.98;0.20;;;10.40;92.20;;;;;;5265767;26;20045;-69
2024/04/10 05:52:35;;;;;;;4.18;0.25;;;10.50;92.50;;;;;;5296630;26;20346;-68
2024/04/10 05:55:07;;;;;;;1.08;0.20;;;10.50;92.60;;;;;;5294056;26;20559;-67
2024/04/10 05:57:40;;;;;;;4.03;0.20;;;10.60;92.50;;;;;;5294919;26;20846;-69
2024/04/10 06:00:09;;;;;;;2.25;0.25;;;11.10;92.60;;;;;;5287978;26;20132;-70
2024/04/10 06:02:38;;;;;;;2.42;0.25;;;10.70;92.60;;;;;;5274670;26;20034;-70
2024/04/10 06:05:05;;;;;;;1.05;0.10;;;10.90;92.80;;;;;;5286572;26;20088;-66
2024/04/10 06:07:34;;;;;;;0.90;0.10;;;10.90;92.60;;;;;;5296463;26;20471;-70
2024/04/10 06:09:59;;;;;;;0.60;0.15;;;10.90;92.80;;;;;;5314448;26;20005;-70
2024/04/10 06:12:25;;;;;;;2.63;0.40;;;11.10;92.90;;;;;;5297264;26;20017;-69
2024/04/10 06:14:52;;;;;;;3.10;0.22;;;10.90;86.60;;;;;;5310913;26;20011;-70
2024/04/10 06:17:20;;;;;;;3.03;0.25;;;10.90;86.50;;;;;;5329533;26;20311;-70
2024/04/10 06:19:49;;;;;;;2.22;0.17;;;11.10;90.40;;;;;;5293043;26;20002;-70
2024/04/10 06:22:15;;;;;;;1.25;0.13;;;11.10;90.00;;;;;;5297219;26;20006;-69
2024/04/10 06:24:45;;;;;;;2.00;0.08;;;11.20;88.80;;;;;;5265604;26;20006;-70
2024/04/10 06:27:11;;;;;;;3.35;0.20;;;11.00;85.80;;;;;;5281379;26;20456;-69
2024/04/10 06:29:47;;;;;;;2.63;0.20;;;11.00;85.30;;;;;;5296318;26;20014;-70
2024/04/10 06:32:14;;;;;;;3.28;0.22;;;11.10;85.60;;;;;;5279917;26;20001;-69
2024/04/10 06:34:40;;;;;;;2.33;0.25;;;11.10;85.70;;;;;;5217021;27;20062;-70
2024/04/10 06:37:06;;;;;;;2.90;0.20;;;11.30;85.50;;;;;;5298628;26;20005;-70
2024/04/10 06:39:32;;;;;;;1.13;0.15;;;11.20;85.10;;;;;;5325836;26;20012;-70
2024/04/10 06:41:58;;;;;;;6.57;0.40;;;11.30;85.20;;;;;;5334007;26;20004;-70
2024/04/10 06:44:24;;;;;;;3.15;0.13;;;11.30;84.20;;;;;;5295571;26;20002;-71
2024/04/10 06:46:49;;;;;;;0.68;0.10;;;11.30;84.50;;;;;;5280647;26;20446;-70
2024/04/10 06:49:15;;;;;;;11.98;0.70;;;11.30;84.50;;;;;;5251542;27;20014;-68
2024/04/10 06:51:40;;;;;;;2.75;0.20;;;11.30;84.00;;;;;;5256336;26;20006;-70
2024/04/10 06:54:06;;;;;;;0.57;0.13;;;11.30;84.00;;;;;;5240722;27;20524;-69
2024/04/10 06:56:38;;;;;;;4.15;0.20;;;11.20;84.20;;;;;;5231771;27;20008;-70
2024/04/10 06:59:03;;;;;;;2.70;0.25;;;11.30;85.30;;;;;;5275908;26;20009;-71
2024/04/10 07:01:29;;;;;;;3.30;0.38;;;11.50;85.20;;;;;;5310927;26;20009;-69
2024/04/10 07:03:54;;;;;;;4.45;0.22;;;11.60;85.00;;;;;;5331984;26;20001;-70
2024/04/10 07:06:20;;;;;;;3.40;0.30;;;11.80;84.80;;;;;;5260625;26;20016;-70
2024/04/10 07:08:47;;;;;;;5.78;0.45;;;12.20;84.40;;;;;;5312113;26;20040;-71
2024/04/10 07:11:17;;;;;;;4.07;0.20;;;12.30;83.40;;;;;;5298960;26;20016;-70
2024/04/10 07:13:44;;;;;;;1.30;0.15;;;12.70;83.60;;;;;;5310616;26;19997;-70
2024/04/10 07:16:10;;;;;;;;;;;12.90;81.80;;;;;;5289427;26;20002;-71
2024/04/10 07:18:35;;;;;;;;;;;13.00;81.40;;;;;;5317343;26;19980;-71
2024/04/10 07:21:11;;;;;;;3.45;0.20;;;13.20;81.30;;;;;;5332789;26;20258;-71
2024/04/10 07:23:39;;;;;;;6.10;0.65;;;13.50;83.00;;;;;;5331305;26;20017;-69
2024/04/10 07:26:13;;;;;;;9.60;0.80;;;13.90;82.60;;;;;;5347969;26;20325;-70
2024/04/10 07:28:41;;;;;;;1.15;0.20;;;13.90;82.40;;;;;;5314796;26;20164;-71
2024/04/10 07:31:13;;;;;;;1.73;0.22;;;13.90;82.50;;;;;;5297547;26;20495;-71
2024/04/10 07:33:39;;;;;;;1.48;0.20;;;14.00;81.70;;;;;;5283512;26;20022;-71
2024/04/10 07:36:12;;;;;;;3.28;0.30;;;14.10;82.10;;;;;;5269204;26;20311;-71
2024/04/10 07:38:38;;;;;;;;;;;14.10;81.90;;;;;;5303010;26;20021;-71
2024/04/10 07:41:04;;;;;;;;;;;14.20;80.50;;;;;;5293209;26;19927;-67
2024/04/10 07:43:31;;;;;;;1.85;0.13;;;14.20;80.40;;;;;;5319960;26;19997;-69
2024/04/10 07:45:57;;;;;;;4.53;0.32;;;14.10;82.60;;;;;;5326673;26;20025;-71
2024/04/10 07:48:22;;;;;;;10.23;0.88;;;14.30;83.60;;;;;;5302539;26;20009;-72
2024/04/10 07:50:48;;;;;;;5.10;0.40;;;14.40;84.50;;;;;;5302139;26;20148;-72
2024/04/10 07:53:14;;;;;;;1.98;0.17;;;14.40;84.00;;;;;;5298663;26;20072;-69
2024/04/10 07:55:39;;;;;;;4.88;0.30;;;14.30;84.50;;;;;;5280569;26;20021;-71
2024/04/10 07:58:05;;;;;;;3.92;0.32;;;14.20;84.70;;;;;;5251688;26;19999;-71
2024/04/10 08:00:30;;;;;;;4.80;0.40;;;14.20;86.30;;;;;;5266784;26;20967;-70
2024/04/10 08:02:56;;;;;;;5.78;0.57;;;14.00;86.90;;;;;;5287489;26;20001;-72
2024/04/10 08:05:22;;;;;;;2.72;0.30;;;13.80;87.00;;;;;;5290838;26;21971;-71
2024/04/10 08:07:48;;;;;;;3.85;0.30;;;13.90;87.90;;;;;;5285612;26;20480;-73
2024/04/10 08:10:13;;;;;;;1.98;0.30;;;13.90;86.30;;;;;;5313504;26;20005;-70
2024/04/10 08:12:39;;;;;;;1.88;0.30;;;13.80;83.70;;;;;;5307041;26;20008;-72
2024/04/10 08:15:08;;;;;;;3.60;0.17;;;13.50;83.30;;;;;;5273518;26;20001;-71
2024/04/10 08:17:38;;;;;;;3.28;0.40;;;13.30;83.60;;;;;;5232290;26;20015;-71
2024/04/10 08:20:04;;;;;;;7.13;0.40;;;13.40;84.10;;;;;;5285881;26;20016;-72
2024/04/10 08:22:36;;;;;;;3.42;0.30;;;13.40;83.80;;;;;;5298414;26;20006;-72
2024/04/10 08:25:02;;;;;;;1.48;0.10;;;13.50;83.70;;;;;;5307304;26;20001;-70
2024/04/10 08:27:27;;;;;;;1.65;0.15;;;13.40;83.00;;;;;;5256189;26;20076;-72
2024/04/10 08:29:53;;;;;;;1.08;0.30;;;13.70;82.70;;;;;;5263757;26;20549;-71
2024/04/10 08:32:19;;;;;;;2.25;0.20;;;13.50;82.00;;;;;;5252803;26;20006;-72
2024/04/10 08:34:44;;;;;;;2.65;0.25;;;13.50;82.40;;;;;;5268854;26;20006;-68
2024/04/10 08:37:10;;;;;;;3.08;0.40;;;13.40;82.80;;;;;;5236687;27;21855;-72
2024/04/10 08:39:36;;;;;;;0.95;0.15;;;13.70;81.90;;;;;;5234244;26;20010;-70
2024/04/10 08:42:03;;;;;;;2.05;0.20;;;13.70;78.00;;;;;;5256026;26;20002;-72
2024/04/10 08:44:30;;;;;;;3.22;0.30;;;13.90;77.40;;;;;;5238522;26;19997;-69
2024/04/10 08:46:58;;;;;;;0.73;0.20;;;14.20;77.00;;;;;;5274658;26;20576;-71
2024/04/10 08:49:25;;;;;;;3.03;0.20;;;14.30;76.00;;;;;;5304070;26;20000;-71
2024/04/10 08:51:51;;;;;;;2.00;0.30;;;14.60;74.80;;;;;;5278104;26;20476;-71
2024/04/10 08:54:20;;;;;;;2.45;0.20;;;14.80;74.00;;;;;;5322865;26;20016;-71
2024/04/10 08:56:45;;;;;;;3.45;0.20;;;14.80;72.90;;;;;;5311818;26;20000;-72
2024/04/10 08:59:11;;;;;;;4.78;0.30;;;14.80;73.90;;;;;;5354744;26;20116;-70
2024/04/10 09:01:37;;;;;;;1.90;0.20;;;14.80;74.10;;;;;;5351469;26;20015;-71
2024/04/10 09:04:13;;;;;;;5.00;0.30;;;14.90;73.90;;;;;;5354664;26;20000;-71
2024/04/10 09:06:40;;;;;;;1.33;0.17;;;14.70;73.30;;;;;;5353817;26;21143;-71
2024/04/10 09:09:07;;;;;;;1.33;0.22;;;14.80;72.70;;;;;;5353564;26;20008;-70
2024/04/10 09:11:33;;;;;;;5.88;0.35;;;14.90;72.90;;;;;;5354663;26;20380;-72
2024/04/10 09:14:10;;;;;;;3.38;0.20;;;14.90;70.20;;;;;;5356238;26;20012;-71
2024/04/10 09:16:37;;;;;;;3.90;0.20;;;15.20;70.90;;;;;;5353816;26;20015;-73
2024/04/10 09:19:16;;;;;;;3.92;0.20;;;15.30;71.20;;;;;;5295410;26;20685;-71
2024/04/10 09:21:55;;;;;;;1.38;0.10;;;15.40;70.00;;;;;;5294788;26;20012;-71
2024/04/10 09:24:28;;;;;;;4.00;0.30;;;15.50;68.70;;;;;;5287112;26;20521;-71
2024/04/10 09:26:54;;;;;;;1.08;0.10;;;15.70;68.40;;;;;;5349530;26;21564;-68
2024/04/10 09:29:24;;;;;;;4.95;0.38;;;15.80;69.10;;;;;;5343869;26;20016;-71
2024/04/10 09:31:51;;;;;;;1.45;0.20;;;15.90;68.30;;;;;;5338543;26;20019;-71
2024/04/10 09:34:21;;;;;;;2.63;0.30;;;15.90;66.20;;;;;;5318471;26;20085;-68
2024/04/10 09:36:47;;;;;;;2.45;0.20;;;15.90;67.90;;;;;;5308116;26;20013;-72
2024/04/10 09:39:13;;;;;;;4.88;0.20;;;16.10;66.00;;;;;;5298200;26;20015;-72
2024/04/10 09:41:44;;;;;;;3.05;0.10;;;16.00;65.60;;;;;;5238111;27;20047;-72
2024/04/10 09:44:10;;;;;;;0.45;0.10;;;15.90;66.50;;;;;;5273176;26;20136;-67
2024/04/10 09:46:38;;;;;;;3.35;0.30;;;15.90;66.60;;;;;;5285511;26;20034;-71
2024/04/10 09:49:53;;;;;;;2.58;0.22;;;16.00;66.80;;;;;;5271169;26;20130;-70
2024/04/10 09:52:20;;;;;;;2.30;0.10;;;16.10;66.70;;;;;;5240649;26;20137;-71
2024/04/10 09:58:35;;;;;;;4.53;0.40;;;16.40;66.00;;;;;;5477555;25;20095;-73
2024/04/10 10:01:02;;;;;;;1.17;0.28;;;16.70;66.40;;;;;;5442521;26;20102;-70
2024/04/10 10:03:34;;;;;;;;;;;16.60;66.70;;;;;;5442577;26;20050;-73
2024/04/10 10:06:07;;;;;;;3.53;0.20;;;16.50;63.30;;;;;;5439095;26;19931;-70
2024/04/10 10:08:34;;;;;;;5.28;0.47;;;16.50;66.40;;;;;;5421465;26;19999;-71
2024/04/10 10:10:59;;;;;;;2.13;0.20;;;16.40;67.10;;;;;;5440253;26;20010;-72
2024/04/10 10:13:29;;;;;;;3.20;0.45;;;16.40;65.90;;;;;;5447688;26;20006;-73
2024/04/10 10:15:59;;;;;;;2.78;0.20;;;16.30;66.80;;;;;;5445389;26;20334;-69
2024/04/10 10:18:28;;;;;;;2.83;0.20;;;16.30;65.90;;;;;;5440895;26;20002;-73
2024/04/10 10:21:10;;;;;;;3.22;0.20;;;16.10;65.90;;;;;;5443353;26;20469;-74
2024/04/10 10:23:40;;;;;;;2.50;0.22;;;16.10;66.90;;;;;;5449065;26;20449;-68
2024/04/10 10:26:09;;;;;;;3.97;0.30;;;16.00;67.60;;;;;;5446772;26;19995;-70
2024/04/10 10:28:39;;;;;;;1.27;0.10;;;16.00;65.30;;;;;;5444128;26;20051;-73
2024/04/10 10:31:10;;;;;;;2.40;0.30;;;16.30;62.70;;;;;;5444379;26;20014;-72
2024/04/10 10:33:40;;;;;;;1.27;0.10;;;16.30;61.80;;;;;;5446504;26;20017;-73
2024/04/10 10:36:07;;;;;;;1.75;0.10;;;16.40;58.80;;;;;;5440992;26;20522;-73
2024/04/10 10:38:32;;;;;;;2.63;0.20;;;16.50;61.30;;;;;;5440809;26;20653;-73
2024/04/10 10:41:18;;;;;;;1.85;0.17;;;16.50;61.00;;;;;;5446399;26;19995;-71
2024/04/10 10:43:44;;;;;;;2.35;0.22;;;16.60;61.00;;;;;;5437895;26;20080;-72
2024/04/10 10:46:10;;;;;;;1.05;0.20;;;16.50;59.10;;;;;;5435881;26;20002;-72
2024/04/10 10:48:36;;;;;;;1.90;0.20;;;16.40;60.80;;;;;;5431462;26;20045;-70
2024/04/10 10:51:02;;;;;;;0.50;0.00;;;16.40;61.30;;;;;;5421988;26;20013;-70
2024/04/10 10:53:28;;;;;;;0.85;0.15;;;16.30;61.60;;;;;;5443434;26;20450;-73
2024/04/10 10:56:00;;;;;;;0.28;0.00;;;16.30;60.50;;;;;;5445279;26;20002;-72
2024/04/10 10:58:26;;;;;;;1.42;0.10;;;16.30;61.60;;;;;;5444942;26;20010;-69
2024/04/10 11:00:53;;;;;;;1.67;0.20;;;16.30;61.10;;;;;;5443501;26;20006;-73
2024/04/10 11:03:21;;;;;;;0.73;0.10;;;16.20;61.40;;;;;;5442530;26;20014;-73
2024/04/10 11:05:47;;;;;;;0.25;0.10;;;16.20;62.20;;;;;;5442554;26;20011;-71
2024/04/10 11:08:20;;;;;;;2.22;0.22;;;16.20;62.90;;;;;;5436995;26;19995;-72
2024/04/10 11:10:48;;;;;;;0.88;0.17;;;16.20;59.80;;;;;;5428883;26;20009;-73
2024/04/10 11:13:14;;;;;;;2.28;0.13;;;16.10;59.70;;;;;;5405696;26;19999;-73
2024/04/10 11:15:45;;;;;;;3.25;0.38;;;16.10;60.20;;;;;;5426443;26;20011;-72
2024/04/10 11:18:13;;;;;;;1.80;0.20;;;16.00;59.60;;;;;;5430436;26;21470;-72
2024/04/10 11:20:39;;;;;;;1.13;0.13;;;16.00;60.20;;;;;;5432065;26;20018;-71
2024/04/10 11:23:05;;;;;;;1.25;0.20;;;16.00;60.20;;;;;;5418141;26;20002;-72
2024/04/10 11:25:30;;;;;;;1.00;0.05;;;16.10;60.80;;;;;;5431577;26;20015;-72
2024/04/10 11:27:57;;;;;;;0.52;0.10;;;16.30;59.40;;;;;;5430810;26;20414;-71
2024/04/10 11:30:24;;;;;;;2.80;0.20;;;16.50;61.50;;;;;;5430915;26;20014;-72
2024/04/10 11:32:51;;;;;;;2.17;0.20;;;16.70;61.20;;;;;;5428914;26;20014;-73
2024/04/10 11:35:16;;;;;;;1.90;0.17;;;17.00;61.70;;;;;;5424319;26;20003;-72
2024/04/10 11:37:42;;;;;;;0.80;0.10;;;17.30;58.80;;;;;;5427383;26;20007;-71
2024/04/10 11:40:11;;;;;;;1.67;0.10;;;17.40;59.00;;;;;;5424785;26;19995;-72
2024/04/10 11:42:40;;;;;;;3.38;0.13;;;17.50;60.20;;;;;;5426644;26;20003;-72
2024/04/10 11:45:09;;;;;;;2.65;0.30;;;17.50;58.80;;;;;;5400365;26;20338;-71
2024/04/10 11:47:38;;;;;;;1.35;0.10;;;17.40;59.00;;;;;;5424816;26;20011;-71
2024/04/10 11:50:07;;;;;;;4.07;0.30;;;17.30;59.20;;;;;;5411731;26;20010;-71
2024/04/10 11:52:35;;;;;;;1.73;0.20;;;17.20;60.30;;;;;;5412250;26;20373;-73
2024/04/10 11:55:09;;;;;;;1.45;0.20;;;17.10;61.10;;;;;;5425040;26;19995;-70
2024/04/10 11:57:35;;;;;;;2.50;0.10;;;17.10;59.40;;;;;;5420774;26;19999;-69
2024/04/10 12:00:03;;;;;;;1.10;0.10;;;17.00;60.00;;;;;;5426404;26;20068;-71
2024/04/10 12:02:29;;;;;;;3.08;0.20;;;17.00;60.00;;;;;;5399498;26;20598;-68
2024/04/10 12:04:54;;;;;;;1.50;0.30;;;16.90;61.00;;;;;;5422993;26;20003;-72
2024/04/10 12:07:20;;;;;;;1.20;0.03;;;16.90;61.50;;;;;;5423868;26;19995;-69
2024/04/10 12:09:46;;;;;;;2.47;0.20;;;16.90;61.60;;;;;;5428096;26;20002;-72
2024/04/10 12:12:13;;;;;;;5.53;0.30;;;16.70;61.80;;;;;;5425871;26;20374;-73
2024/04/10 12:14:42;;;;;;;8.88;0.70;;;16.70;62.50;;;;;;5426299;26;20003;-72
2024/04/10 12:17:09;;;;;;;2.40;0.20;;;16.70;63.00;;;;;;5428331;26;20011;-70
2024/04/10 12:19:35;;;;;;;0.80;0.20;;;16.70;61.50;;;;;;5426491;26;19995;-72
2024/04/10 12:22:00;;;;;;;2.20;0.20;;;16.60;62.10;;;;;;5426234;26;20006;-72
2024/04/10 12:24:26;;;;;;;0.77;0.30;;;16.60;61.90;;;;;;5421980;26;20007;-69
2024/04/10 12:26:52;;;;;;;3.20;0.28;;;16.60;62.70;;;;;;5425086;26;20011;-72
2024/04/10 12:29:18;;;;;;;0.35;0.10;;;16.60;61.90;;;;;;5420440;26;20011;-73
2024/04/10 12:31:45;;;;;;;1.13;0.13;;;16.60;61.30;;;;;;5425450;26;20032;-72
2024/04/10 12:34:11;;;;;;;1.67;0.22;;;16.50;60.90;;;;;;5422777;26;20359;-72
2024/04/10 12:39:21;;;;;;;1.55;0.20;;;16.40;60.20;;;;;;5421937;26;20026;-72
2024/04/10 12:41:51;;;;;;;1.80;0.20;;;16.40;61.10;;;;;;5425384;26;20457;-72
2024/04/10 12:44:21;;;;;;;1.45;0.20;;;16.40;61.30;;;;;;5422309;26;20082;-73
2024/04/10 12:46:53;;;;;;;2.28;0.20;;;16.30;61.20;;;;;;5428933;26;20027;-69
2024/04/10 12:49:19;;;;;;;2.65;0.20;;;16.30;60.80;;;;;;5424092;26;19998;-72
2024/04/10 12:51:45;;;;;;;2.05;0.20;;;16.30;61.70;;;;;;5427260;26;20050;-71
2024/04/10 12:54:11;;;;;;;1.05;0.13;;;16.30;61.10;;;;;;5420166;26;20080;-72
2024/04/10 12:56:46;;;;;;;1.40;0.17;;;16.20;59.50;;;;;;5425275;26;20540;-72